sensor_id;sensor_type;location;lat;lon;timestamp;temperature;humidity
42833;DHT22;64089;51.478;5.692;2023-04-07T00:01:21;8.90;99.90
42833;DHT22;64089;51.478;5.692;2023-04-07T00:03:47;8.90;99.90
42833;DHT22;64089;51.478;5.692;2023-04-07T00:06:13;8.90;99.90
42833;DHT22;64089;51.478;5.692;2023-04-07T00:08:38;8.90;99.90
42833;DHT22;64089;51.478;5.692;2023-04-07T00:11:04;8.90;99.90
42833;DHT22;64089;51.478;5.692;2023-04-07T00:13:30;8.90;99.90
42833;DHT22;64089;51.478;5.692;2023-04-07T00:15:56;8.90;99.90
42833;DHT22;64089;51.478;5.692;2023-04-07T00:18:21;8.90;99.90
42833;DHT22;64089;51.478;5.692;2023-04-07T00:20:47;8.90;99.90
42833;DHT22;64089;51.478;5.692;2023-04-07T00:23:13;8.90;99.90
42833;DHT22;64089;51.478;5.692;2023-04-07T00:25:38;8.80;99.90
42833;DHT22;64089;51.478;5.692;2023-04-07T00:28:04;8.80;99.90
42833;DHT22;64089;51.478;5.692;2023-04-07T00:30:29;8.80;99.90
42833;DHT22;64089;51.478;5.692;2023-04-07T00:32:55;8.80;99.90
42833;DHT22;64089;51.478;5.692;2023-04-07T00:35:22;8.80;99.90
42833;DHT22;64089;51.478;5.692;2023-04-07T00:37:47;8.80;99.90
42833;DHT22;64089;51.478;5.692;2023-04-07T00:40:13;8.70;99.90
42833;DHT22;64089;51.478;5.692;2023-04-07T00:42:39;8.70;99.90
42833;DHT22;64089;51.478;5.692;2023-04-07T00:45:05;8.70;99.90
42833;DHT22;64089;51.478;5.692;2023-04-07T00:47:31;8.70;99.90
42833;DHT22;64089;51.478;5.692;2023-04-07T00:49:56;8.60;99.90
42833;DHT22;64089;51.478;5.692;2023-04-07T00:52:23;8.60;99.90
42833;DHT22;64089;51.478;5.692;2023-04-07T00:54:57;8.70;99.90
42833;DHT22;64089;51.478;5.692;2023-04-07T00:57:23;8.70;99.90
42833;DHT22;64089;51.478;5.692;2023-04-07T00:59:53;8.60;99.90
42833;DHT22;64089;51.478;5.692;2023-04-07T01:02:25;8.70;99.90
42833;DHT22;64089;51.478;5.692;2023-04-07T01:05:17;8.70;99.90
42833;DHT22;64089;51.478;5.692;2023-04-07T01:08:14;8.60;99.90
42833;DHT22;64089;51.478;5.692;2023-04-07T01:10:55;8.60;99.90
42833;DHT22;64089;51.478;5.692;2023-04-07T01:13:26;8.60;99.90
42833;DHT22;64089;51.478;5.692;2023-04-07T01:15:54;8.60;99.90
42833;DHT22;64089;51.478;5.692;2023-04-07T01:18:30;8.60;99.90
42833;DHT22;64089;51.478;5.692;2023-04-07T01:21:13;8.60;99.90
42833;DHT22;64089;51.478;5.692;2023-04-07T01:24:00;8.60;99.90
42833;DHT22;64089;51.478;5.692;2023-04-07T01:26:29;8.50;99.90
42833;DHT22;64089;51.478;5.692;2023-04-07T01:29:25;8.50;99.90
42833;DHT22;64089;51.478;5.692;2023-04-07T01:31:54;8.50;99.90
42833;DHT22;64089;51.478;5.692;2023-04-07T01:34:22;8.50;99.90
42833;DHT22;64089;51.478;5.692;2023-04-07T01:36:48;8.50;99.90
42833;DHT22;64089;51.478;5.692;2023-04-07T01:39:15;8.50;99.90
42833;DHT22;64089;51.478;5.692;2023-04-07T01:41:42;8.40;99.90
42833;DHT22;64089;51.478;5.692;2023-04-07T01:44:09;8.40;99.90
42833;DHT22;64089;51.478;5.692;2023-04-07T01:46:35;8.50;99.90
42833;DHT22;64089;51.478;5.692;2023-04-07T01:49:02;8.40;99.90
42833;DHT22;64089;51.478;5.692;2023-04-07T01:51:29;8.40;99.90
42833;DHT22;64089;51.478;5.692;2023-04-07T01:53:56;8.40;99.90
42833;DHT22;64089;51.478;5.692;2023-04-07T01:56:22;8.40;99.90
42833;DHT22;64089;51.478;5.692;2023-04-07T01:58:47;8.40;99.90
42833;DHT22;64089;51.478;5.692;2023-04-07T02:01:13;8.40;99.90
42833;DHT22;64089;51.478;5.692;2023-04-07T02:03:43;8.40;99.90
42833;DHT22;64089;51.478;5.692;2023-04-07T02:06:14;8.40;99.90
42833;DHT22;64089;51.478;5.692;2023-04-07T02:08:51;8.40;99.90
42833;DHT22;64089;51.478;5.692;2023-04-07T02:11:20;8.40;99.90
42833;DHT22;64089;51.478;5.692;2023-04-07T02:13:46;8.40;99.90
42833;DHT22;64089;51.478;5.692;2023-04-07T02:16:14;8.30;99.90
42833;DHT22;64089;51.478;5.692;2023-04-07T02:18:42;8.30;99.90
42833;DHT22;64089;51.478;5.692;2023-04-07T02:21:09;8.40;99.90
42833;DHT22;64089;51.478;5.692;2023-04-07T02:23:36;8.30;99.90
42833;DHT22;64089;51.478;5.692;2023-04-07T02:26:01;8.30;99.90
42833;DHT22;64089;51.478;5.692;2023-04-07T02:28:27;8.30;99.90
42833;DHT22;64089;51.478;5.692;2023-04-07T02:30:52;8.30;99.90
42833;DHT22;64089;51.478;5.692;2023-04-07T02:33:18;8.30;99.90
42833;DHT22;64089;51.478;5.692;2023-04-07T02:35:43;8.30;99.90
42833;DHT22;64089;51.478;5.692;2023-04-07T02:38:09;8.30;99.90
42833;DHT22;64089;51.478;5.692;2023-04-07T02:40:35;8.20;99.90
42833;DHT22;64089;51.478;5.692;2023-04-07T02:43:01;8.20;99.90
42833;DHT22;64089;51.478;5.692;2023-04-07T02:45:27;8.20;99.90
42833;DHT22;64089;51.478;5.692;2023-04-07T02:47:52;8.20;99.90
42833;DHT22;64089;51.478;5.692;2023-04-07T02:50:18;8.20;99.90
42833;DHT22;64089;51.478;5.692;2023-04-07T02:52:44;8.20;99.90
42833;DHT22;64089;51.478;5.692;2023-04-07T02:55:09;8.20;99.90
42833;DHT22;64089;51.478;5.692;2023-04-07T02:57:35;8.20;99.90
42833;DHT22;64089;51.478;5.692;2023-04-07T03:00:00;8.20;99.90
42833;DHT22;64089;51.478;5.692;2023-04-07T03:02:26;8.20;99.90
42833;DHT22;64089;51.478;5.692;2023-04-07T03:04:52;8.20;99.90
42833;DHT22;64089;51.478;5.692;2023-04-07T03:07:18;8.20;99.90
42833;DHT22;64089;51.478;5.692;2023-04-07T03:09:43;8.20;99.90
42833;DHT22;64089;51.478;5.692;2023-04-07T03:12:09;8.20;99.90
42833;DHT22;64089;51.478;5.692;2023-04-07T03:14:35;8.20;99.90
42833;DHT22;64089;51.478;5.692;2023-04-07T03:17:02;8.20;99.90
42833;DHT22;64089;51.478;5.692;2023-04-07T03:19:27;8.20;99.90
42833;DHT22;64089;51.478;5.692;2023-04-07T03:21:53;8.20;99.90
42833;DHT22;64089;51.478;5.692;2023-04-07T03:24:19;8.20;99.90
42833;DHT22;64089;51.478;5.692;2023-04-07T03:26:44;8.20;99.90
42833;DHT22;64089;51.478;5.692;2023-04-07T03:29:10;8.20;99.90
42833;DHT22;64089;51.478;5.692;2023-04-07T03:31:35;8.20;99.90
42833;DHT22;64089;51.478;5.692;2023-04-07T03:34:02;8.20;99.90
42833;DHT22;64089;51.478;5.692;2023-04-07T03:36:28;8.20;99.90
42833;DHT22;64089;51.478;5.692;2023-04-07T03:38:54;8.20;99.90
42833;DHT22;64089;51.478;5.692;2023-04-07T03:41:20;8.20;99.90
42833;DHT22;64089;51.478;5.692;2023-04-07T03:43:45;8.20;99.90
42833;DHT22;64089;51.478;5.692;2023-04-07T03:46:11;8.20;99.90
42833;DHT22;64089;51.478;5.692;2023-04-07T03:48:36;8.10;99.90
42833;DHT22;64089;51.478;5.692;2023-04-07T03:51:02;8.10;99.90
42833;DHT22;64089;51.478;5.692;2023-04-07T03:53:28;8.10;99.90
42833;DHT22;64089;51.478;5.692;2023-04-07T03:55:53;8.20;99.90
42833;DHT22;64089;51.478;5.692;2023-04-07T03:58:19;8.20;99.90
42833;DHT22;64089;51.478;5.692;2023-04-07T04:00:45;8.20;99.90
42833;DHT22;64089;51.478;5.692;2023-04-07T04:03:11;8.10;99.90
42833;DHT22;64089;51.478;5.692;2023-04-07T04:05:36;8.20;99.90
42833;DHT22;64089;51.478;5.692;2023-04-07T04:08:03;8.20;99.90
42833;DHT22;64089;51.478;5.692;2023-04-07T04:10:28;8.20;99.90
42833;DHT22;64089;51.478;5.692;2023-04-07T04:12:54;8.20;99.90
42833;DHT22;64089;51.478;5.692;2023-04-07T04:15:20;8.20;99.90
42833;DHT22;64089;51.478;5.692;2023-04-07T04:17:45;8.20;99.90
42833;DHT22;64089;51.478;5.692;2023-04-07T04:20:11;8.20;99.90
42833;DHT22;64089;51.478;5.692;2023-04-07T04:22:36;8.10;99.90
42833;DHT22;64089;51.478;5.692;2023-04-07T04:25:03;8.10;99.90
42833;DHT22;64089;51.478;5.692;2023-04-07T04:27:29;8.10;99.90
42833;DHT22;64089;51.478;5.692;2023-04-07T04:29:55;8.10;99.90
42833;DHT22;64089;51.478;5.692;2023-04-07T04:32:21;8.10;99.90
42833;DHT22;64089;51.478;5.692;2023-04-07T04:34:47;8.10;99.90
42833;DHT22;64089;51.478;5.692;2023-04-07T04:37:12;8.10;99.90
42833;DHT22;64089;51.478;5.692;2023-04-07T04:39:38;8.10;99.90
42833;DHT22;64089;51.478;5.692;2023-04-07T04:42:04;8.10;99.90
42833;DHT22;64089;51.478;5.692;2023-04-07T04:44:30;8.10;99.90
42833;DHT22;64089;51.478;5.692;2023-04-07T04:46:55;8.10;99.90
42833;DHT22;64089;51.478;5.692;2023-04-07T04:49:21;8.10;99.90
42833;DHT22;64089;51.478;5.692;2023-04-07T04:51:47;8.10;99.90
42833;DHT22;64089;51.478;5.692;2023-04-07T04:54:13;8.10;99.90
42833;DHT22;64089;51.478;5.692;2023-04-07T04:56:38;8.10;99.90
42833;DHT22;64089;51.478;5.692;2023-04-07T04:59:04;8.00;99.90
42833;DHT22;64089;51.478;5.692;2023-04-07T05:01:30;8.00;99.90
42833;DHT22;64089;51.478;5.692;2023-04-07T05:03:55;8.00;99.90
42833;DHT22;64089;51.478;5.692;2023-04-07T05:06:21;8.00;99.90
42833;DHT22;64089;51.478;5.692;2023-04-07T05:08:47;8.00;99.90
42833;DHT22;64089;51.478;5.692;2023-04-07T05:11:13;7.90;99.90
42833;DHT22;64089;51.478;5.692;2023-04-07T05:13:38;7.90;99.90
42833;DHT22;64089;51.478;5.692;2023-04-07T05:16:05;7.90;99.90
42833;DHT22;64089;51.478;5.692;2023-04-07T05:18:31;7.90;99.90
42833;DHT22;64089;51.478;5.692;2023-04-07T05:20:56;7.90;99.90
42833;DHT22;64089;51.478;5.692;2023-04-07T05:23:22;7.90;99.90
42833;DHT22;64089;51.478;5.692;2023-04-07T05:25:47;7.90;99.90
42833;DHT22;64089;51.478;5.692;2023-04-07T05:28:13;7.90;99.90
42833;DHT22;64089;51.478;5.692;2023-04-07T05:30:38;7.90;99.90
42833;DHT22;64089;51.478;5.692;2023-04-07T05:33:04;7.90;99.90
42833;DHT22;64089;51.478;5.692;2023-04-07T05:35:30;7.90;99.90
42833;DHT22;64089;51.478;5.692;2023-04-07T05:37:55;8.00;99.90
42833;DHT22;64089;51.478;5.692;2023-04-07T05:40:21;8.00;99.90
42833;DHT22;64089;51.478;5.692;2023-04-07T05:42:47;8.00;99.90
42833;DHT22;64089;51.478;5.692;2023-04-07T05:45:12;8.10;99.90
42833;DHT22;64089;51.478;5.692;2023-04-07T05:47:38;8.10;99.90
42833;DHT22;64089;51.478;5.692;2023-04-07T05:50:04;8.10;99.90
42833;DHT22;64089;51.478;5.692;2023-04-07T05:52:30;8.10;99.90
42833;DHT22;64089;51.478;5.692;2023-04-07T05:54:55;8.10;99.90
42833;DHT22;64089;51.478;5.692;2023-04-07T05:57:21;8.10;99.90
42833;DHT22;64089;51.478;5.692;2023-04-07T05:59:47;8.10;99.90
42833;DHT22;64089;51.478;5.692;2023-04-07T06:02:13;8.10;99.90
42833;DHT22;64089;51.478;5.692;2023-04-07T06:04:38;8.10;99.90
42833;DHT22;64089;51.478;5.692;2023-04-07T06:07:06;8.10;99.90
42833;DHT22;64089;51.478;5.692;2023-04-07T06:09:32;8.10;99.90
42833;DHT22;64089;51.478;5.692;2023-04-07T06:11:57;8.20;99.90
42833;DHT22;64089;51.478;5.692;2023-04-07T06:14:23;8.20;99.90
42833;DHT22;64089;51.478;5.692;2023-04-07T06:16:49;8.20;99.90
42833;DHT22;64089;51.478;5.692;2023-04-07T06:19:14;8.40;99.90
42833;DHT22;64089;51.478;5.692;2023-04-07T06:21:40;8.40;99.90
42833;DHT22;64089;51.478;5.692;2023-04-07T06:24:06;8.40;99.90
42833;DHT22;64089;51.478;5.692;2023-04-07T06:26:32;8.30;99.90
42833;DHT22;64089;51.478;5.692;2023-04-07T06:28:58;8.30;99.90
42833;DHT22;64089;51.478;5.692;2023-04-07T06:31:24;8.30;99.90
42833;DHT22;64089;51.478;5.692;2023-04-07T06:33:50;8.30;99.90
42833;DHT22;64089;51.478;5.692;2023-04-07T06:36:16;8.30;99.90
42833;DHT22;64089;51.478;5.692;2023-04-07T06:38:42;8.40;99.90
42833;DHT22;64089;51.478;5.692;2023-04-07T06:41:07;8.40;99.90
42833;DHT22;64089;51.478;5.692;2023-04-07T06:43:36;8.40;99.90
42833;DHT22;64089;51.478;5.692;2023-04-07T06:46:02;8.50;99.90
42833;DHT22;64089;51.478;5.692;2023-04-07T06:48:27;8.50;99.90
42833;DHT22;64089;51.478;5.692;2023-04-07T06:50:53;8.40;99.90
42833;DHT22;64089;51.478;5.692;2023-04-07T06:53:18;8.40;99.90
42833;DHT22;64089;51.478;5.692;2023-04-07T06:55:44;8.50;99.90
42833;DHT22;64089;51.478;5.692;2023-04-07T06:58:10;8.50;99.90
42833;DHT22;64089;51.478;5.692;2023-04-07T07:00:36;8.60;99.90
42833;DHT22;64089;51.478;5.692;2023-04-07T07:03:01;8.50;99.90
42833;DHT22;64089;51.478;5.692;2023-04-07T07:05:27;8.60;99.90
42833;DHT22;64089;51.478;5.692;2023-04-07T07:07:53;8.60;99.90
42833;DHT22;64089;51.478;5.692;2023-04-07T07:10:18;8.70;99.90
42833;DHT22;64089;51.478;5.692;2023-04-07T07:12:48;8.70;99.90
42833;DHT22;64089;51.478;5.692;2023-04-07T07:15:13;8.70;99.90
42833;DHT22;64089;51.478;5.692;2023-04-07T07:17:39;8.70;99.90
42833;DHT22;64089;51.478;5.692;2023-04-07T07:20:06;8.80;99.90
42833;DHT22;64089;51.478;5.692;2023-04-07T07:22:31;8.70;99.90
42833;DHT22;64089;51.478;5.692;2023-04-07T07:24:57;8.80;99.90
42833;DHT22;64089;51.478;5.692;2023-04-07T07:27:22;8.70;99.90
42833;DHT22;64089;51.478;5.692;2023-04-07T07:29:48;8.70;99.90
42833;DHT22;64089;51.478;5.692;2023-04-07T07:32:14;8.70;99.90
42833;DHT22;64089;51.478;5.692;2023-04-07T07:34:39;8.70;99.90
42833;DHT22;64089;51.478;5.692;2023-04-07T07:37:05;8.80;99.90
42833;DHT22;64089;51.478;5.692;2023-04-07T07:39:31;8.90;99.90
42833;DHT22;64089;51.478;5.692;2023-04-07T07:41:57;9.00;99.90
42833;DHT22;64089;51.478;5.692;2023-04-07T07:44:22;9.10;99.90
42833;DHT22;64089;51.478;5.692;2023-04-07T07:46:49;9.10;99.90
42833;DHT22;64089;51.478;5.692;2023-04-07T07:49:15;9.00;99.90
42833;DHT22;64089;51.478;5.692;2023-04-07T07:51:41;9.00;99.90
42833;DHT22;64089;51.478;5.692;2023-04-07T07:54:07;9.00;99.90
42833;DHT22;64089;51.478;5.692;2023-04-07T07:56:34;9.00;99.90
42833;DHT22;64089;51.478;5.692;2023-04-07T07:58:59;9.00;99.90
42833;DHT22;64089;51.478;5.692;2023-04-07T08:01:25;9.00;99.90
42833;DHT22;64089;51.478;5.692;2023-04-07T08:03:50;9.00;99.90
42833;DHT22;64089;51.478;5.692;2023-04-07T08:06:16;9.10;99.90
42833;DHT22;64089;51.478;5.692;2023-04-07T08:08:42;9.10;99.90
42833;DHT22;64089;51.478;5.692;2023-04-07T08:11:07;9.10;99.90
42833;DHT22;64089;51.478;5.692;2023-04-07T08:13:33;9.10;99.90
42833;DHT22;64089;51.478;5.692;2023-04-07T08:15:59;9.20;99.90
42833;DHT22;64089;51.478;5.692;2023-04-07T08:18:24;9.20;99.90
42833;DHT22;64089;51.478;5.692;2023-04-07T08:20:50;9.10;99.90
42833;DHT22;64089;51.478;5.692;2023-04-07T08:23:16;9.00;99.90
42833;DHT22;64089;51.478;5.692;2023-04-07T08:25:42;9.20;99.90
42833;DHT22;64089;51.478;5.692;2023-04-07T08:28:07;9.30;99.90
42833;DHT22;64089;51.478;5.692;2023-04-07T08:30:33;9.40;99.90
42833;DHT22;64089;51.478;5.692;2023-04-07T08:32:58;9.50;99.90
42833;DHT22;64089;51.478;5.692;2023-04-07T08:35:24;9.70;99.90
42833;DHT22;64089;51.478;5.692;2023-04-07T08:37:50;9.80;99.90
42833;DHT22;64089;51.478;5.692;2023-04-07T08:40:16;9.70;99.90
42833;DHT22;64089;51.478;5.692;2023-04-07T08:42:45;9.90;99.90
42833;DHT22;64089;51.478;5.692;2023-04-07T08:45:11;9.90;99.90
42833;DHT22;64089;51.478;5.692;2023-04-07T08:47:39;10.00;99.90
42833;DHT22;64089;51.478;5.692;2023-04-07T08:50:07;9.90;99.90
42833;DHT22;64089;51.478;5.692;2023-04-07T08:52:50;9.70;99.90
42833;DHT22;64089;51.478;5.692;2023-04-07T08:55:17;9.70;99.90
42833;DHT22;64089;51.478;5.692;2023-04-07T08:57:43;9.90;99.90
42833;DHT22;64089;51.478;5.692;2023-04-07T09:00:10;9.80;99.90
42833;DHT22;64089;51.478;5.692;2023-04-07T09:02:39;9.90;99.90
42833;DHT22;64089;51.478;5.692;2023-04-07T09:05:06;10.00;99.90
42833;DHT22;64089;51.478;5.692;2023-04-07T09:07:33;10.00;99.90
42833;DHT22;64089;51.478;5.692;2023-04-07T09:09:59;10.00;99.90
42833;DHT22;64089;51.478;5.692;2023-04-07T09:12:29;10.00;99.90
42833;DHT22;64089;51.478;5.692;2023-04-07T09:14:56;10.00;99.90
42833;DHT22;64089;51.478;5.692;2023-04-07T09:17:21;10.00;99.90
42833;DHT22;64089;51.478;5.692;2023-04-07T09:19:51;9.90;99.90
42833;DHT22;64089;51.478;5.692;2023-04-07T09:22:37;9.90;99.90
42833;DHT22;64089;51.478;5.692;2023-04-07T09:25:14;9.90;99.90
42833;DHT22;64089;51.478;5.692;2023-04-07T09:28:02;10.00;99.90
42833;DHT22;64089;51.478;5.692;2023-04-07T09:30:29;10.20;99.90
42833;DHT22;64089;51.478;5.692;2023-04-07T09:32:56;10.30;99.90
42833;DHT22;64089;51.478;5.692;2023-04-07T09:35:22;10.20;99.90
42833;DHT22;64089;51.478;5.692;2023-04-07T09:40:28;9.90;99.90
42833;DHT22;64089;51.478;5.692;2023-04-07T09:42:53;9.80;99.90
42833;DHT22;64089;51.478;5.692;2023-04-07T09:45:29;9.80;99.90
42833;DHT22;64089;51.478;5.692;2023-04-07T09:48:07;10.00;99.90
42833;DHT22;64089;51.478;5.692;2023-04-07T09:50:33;10.10;99.90
42833;DHT22;64089;51.478;5.692;2023-04-07T09:53:00;10.30;99.90
42833;DHT22;64089;51.478;5.692;2023-04-07T09:55:27;10.40;99.90
42833;DHT22;64089;51.478;5.692;2023-04-07T09:57:53;10.20;99.90
42833;DHT22;64089;51.478;5.692;2023-04-07T10:00:23;10.20;99.90
42833;DHT22;64089;51.478;5.692;2023-04-07T10:02:49;10.30;99.90
42833;DHT22;64089;51.478;5.692;2023-04-07T10:05:16;10.20;99.90
42833;DHT22;64089;51.478;5.692;2023-04-07T10:07:45;10.30;99.90
42833;DHT22;64089;51.478;5.692;2023-04-07T10:10:11;10.30;99.90
42833;DHT22;64089;51.478;5.692;2023-04-07T10:12:37;10.20;99.90
42833;DHT22;64089;51.478;5.692;2023-04-07T10:15:03;10.20;99.90
42833;DHT22;64089;51.478;5.692;2023-04-07T10:17:30;10.20;99.90
42833;DHT22;64089;51.478;5.692;2023-04-07T10:20:01;10.10;99.90
42833;DHT22;64089;51.478;5.692;2023-04-07T10:22:28;10.00;99.90
42833;DHT22;64089;51.478;5.692;2023-04-07T10:25:07;10.00;99.90
42833;DHT22;64089;51.478;5.692;2023-04-07T10:27:43;10.00;99.90
42833;DHT22;64089;51.478;5.692;2023-04-07T10:30:17;9.90;99.90
42833;DHT22;64089;51.478;5.692;2023-04-07T10:32:49;9.90;99.90
42833;DHT22;64089;51.478;5.692;2023-04-07T10:35:15;9.90;99.90
42833;DHT22;64089;51.478;5.692;2023-04-07T10:40:35;10.00;99.90
42833;DHT22;64089;51.478;5.692;2023-04-07T10:43:01;10.10;99.90
42833;DHT22;64089;51.478;5.692;2023-04-07T10:48:17;10.10;99.90
42833;DHT22;64089;51.478;5.692;2023-04-07T10:53:37;10.10;99.90
42833;DHT22;64089;51.478;5.692;2023-04-07T10:56:23;10.20;99.90
42833;DHT22;64089;51.478;5.692;2023-04-07T10:59:13;10.10;99.90
42833;DHT22;64089;51.478;5.692;2023-04-07T11:01:39;9.90;99.90
42833;DHT22;64089;51.478;5.692;2023-04-07T11:04:05;9.70;99.90
42833;DHT22;64089;51.478;5.692;2023-04-07T11:06:32;9.30;99.90
42833;DHT22;64089;51.478;5.692;2023-04-07T11:08:58;9.30;99.90
42833;DHT22;64089;51.478;5.692;2023-04-07T11:11:39;9.10;99.90
42833;DHT22;64089;51.478;5.692;2023-04-07T11:14:05;9.20;99.90
42833;DHT22;64089;51.478;5.692;2023-04-07T11:16:39;9.20;99.90
42833;DHT22;64089;51.478;5.692;2023-04-07T11:19:05;9.30;99.90
42833;DHT22;64089;51.478;5.692;2023-04-07T11:21:30;9.60;99.90
42833;DHT22;64089;51.478;5.692;2023-04-07T11:23:56;9.70;99.90
42833;DHT22;64089;51.478;5.692;2023-04-07T11:26:22;9.90;99.90
42833;DHT22;64089;51.478;5.692;2023-04-07T11:28:49;10.00;99.90
42833;DHT22;64089;51.478;5.692;2023-04-07T11:31:26;10.10;99.90
42833;DHT22;64089;51.478;5.692;2023-04-07T11:36:39;10.70;99.90
42833;DHT22;64089;51.478;5.692;2023-04-07T11:39:05;10.60;99.90
42833;DHT22;64089;51.478;5.692;2023-04-07T11:41:46;10.60;99.90
42833;DHT22;64089;51.478;5.692;2023-04-07T11:44:13;10.20;99.90
42833;DHT22;64089;51.478;5.692;2023-04-07T11:46:58;10.00;99.90
42833;DHT22;64089;51.478;5.692;2023-04-07T11:49:26;9.90;99.90
42833;DHT22;64089;51.478;5.692;2023-04-07T11:52:02;9.90;99.90
42833;DHT22;64089;51.478;5.692;2023-04-07T11:54:45;9.90;99.90
42833;DHT22;64089;51.478;5.692;2023-04-07T11:57:12;10.00;99.90
42833;DHT22;64089;51.478;5.692;2023-04-07T11:59:38;10.10;99.90
42833;DHT22;64089;51.478;5.692;2023-04-07T12:02:04;10.30;99.90
42833;DHT22;64089;51.478;5.692;2023-04-07T12:04:31;10.40;99.90
42833;DHT22;64089;51.478;5.692;2023-04-07T12:07:10;10.40;99.90
42833;DHT22;64089;51.478;5.692;2023-04-07T12:09:36;10.50;99.90
42833;DHT22;64089;51.478;5.692;2023-04-07T12:12:03;10.40;99.90
42833;DHT22;64089;51.478;5.692;2023-04-07T12:14:31;10.40;99.90
42833;DHT22;64089;51.478;5.692;2023-04-07T12:16:57;10.50;99.90
42833;DHT22;64089;51.478;5.692;2023-04-07T12:19:27;11.00;99.90
42833;DHT22;64089;51.478;5.692;2023-04-07T12:21:53;11.10;99.90
42833;DHT22;64089;51.478;5.692;2023-04-07T12:24:19;11.20;99.90
42833;DHT22;64089;51.478;5.692;2023-04-07T12:26:46;11.20;99.90
42833;DHT22;64089;51.478;5.692;2023-04-07T12:29:12;11.10;99.90
42833;DHT22;64089;51.478;5.692;2023-04-07T12:31:38;11.20;99.90
42833;DHT22;64089;51.478;5.692;2023-04-07T12:34:03;11.20;99.90
42833;DHT22;64089;51.478;5.692;2023-04-07T12:36:29;11.30;99.90
42833;DHT22;64089;51.478;5.692;2023-04-07T12:38:55;11.30;99.90
42833;DHT22;64089;51.478;5.692;2023-04-07T12:41:21;11.30;99.90
42833;DHT22;64089;51.478;5.692;2023-04-07T12:43:47;11.00;99.90
42833;DHT22;64089;51.478;5.692;2023-04-07T12:46:13;11.00;99.90
42833;DHT22;64089;51.478;5.692;2023-04-07T12:48:38;10.90;99.90
42833;DHT22;64089;51.478;5.692;2023-04-07T12:51:04;10.70;99.90
42833;DHT22;64089;51.478;5.692;2023-04-07T12:53:30;10.60;99.90
42833;DHT22;64089;51.478;5.692;2023-04-07T12:55:55;10.40;99.90
42833;DHT22;64089;51.478;5.692;2023-04-07T12:58:23;10.40;99.90
42833;DHT22;64089;51.478;5.692;2023-04-07T13:00:50;10.50;99.90
42833;DHT22;64089;51.478;5.692;2023-04-07T13:03:16;10.50;99.90
42833;DHT22;64089;51.478;5.692;2023-04-07T13:05:42;10.40;99.90
42833;DHT22;64089;51.478;5.692;2023-04-07T13:08:08;10.40;99.90
42833;DHT22;64089;51.478;5.692;2023-04-07T13:10:34;10.40;99.90
42833;DHT22;64089;51.478;5.692;2023-04-07T13:13:00;10.50;99.90
42833;DHT22;64089;51.478;5.692;2023-04-07T13:15:25;10.60;99.90
42833;DHT22;64089;51.478;5.692;2023-04-07T13:17:52;10.70;99.90
42833;DHT22;64089;51.478;5.692;2023-04-07T13:20:18;10.60;99.90
42833;DHT22;64089;51.478;5.692;2023-04-07T13:22:44;10.40;99.90
42833;DHT22;64089;51.478;5.692;2023-04-07T13:25:10;10.50;99.90
42833;DHT22;64089;51.478;5.692;2023-04-07T13:27:35;10.40;99.90
42833;DHT22;64089;51.478;5.692;2023-04-07T13:30:01;10.50;99.90
42833;DHT22;64089;51.478;5.692;2023-04-07T13:32:27;10.40;99.90
42833;DHT22;64089;51.478;5.692;2023-04-07T13:34:52;10.30;99.90
42833;DHT22;64089;51.478;5.692;2023-04-07T13:37:18;10.30;99.90
42833;DHT22;64089;51.478;5.692;2023-04-07T13:39:44;10.50;99.90
42833;DHT22;64089;51.478;5.692;2023-04-07T13:42:10;10.70;99.90
42833;DHT22;64089;51.478;5.692;2023-04-07T13:44:36;10.70;99.90
42833;DHT22;64089;51.478;5.692;2023-04-07T13:47:02;10.70;99.90
42833;DHT22;64089;51.478;5.692;2023-04-07T13:49:28;10.50;99.90
42833;DHT22;64089;51.478;5.692;2023-04-07T13:51:53;10.50;99.90
42833;DHT22;64089;51.478;5.692;2023-04-07T13:54:19;10.50;99.90
42833;DHT22;64089;51.478;5.692;2023-04-07T13:56:45;10.50;99.90
42833;DHT22;64089;51.478;5.692;2023-04-07T13:59:13;10.40;99.90
42833;DHT22;64089;51.478;5.692;2023-04-07T14:01:39;10.60;99.90
42833;DHT22;64089;51.478;5.692;2023-04-07T14:04:05;10.50;99.90
42833;DHT22;64089;51.478;5.692;2023-04-07T14:06:31;10.30;99.90
42833;DHT22;64089;51.478;5.692;2023-04-07T14:08:57;10.60;99.90
42833;DHT22;64089;51.478;5.692;2023-04-07T14:11:23;10.80;99.90
42833;DHT22;64089;51.478;5.692;2023-04-07T14:13:49;10.70;99.90
42833;DHT22;64089;51.478;5.692;2023-04-07T14:16:15;10.60;99.90
42833;DHT22;64089;51.478;5.692;2023-04-07T14:18:41;10.50;99.90
42833;DHT22;64089;51.478;5.692;2023-04-07T14:21:07;10.30;99.90
42833;DHT22;64089;51.478;5.692;2023-04-07T14:23:33;10.30;99.90
42833;DHT22;64089;51.478;5.692;2023-04-07T14:25:59;10.20;99.90
42833;DHT22;64089;51.478;5.692;2023-04-07T14:28:26;10.30;99.90
42833;DHT22;64089;51.478;5.692;2023-04-07T14:30:52;10.30;99.90
42833;DHT22;64089;51.478;5.692;2023-04-07T14:33:19;10.20;99.90
42833;DHT22;64089;51.478;5.692;2023-04-07T14:35:45;10.20;99.90
42833;DHT22;64089;51.478;5.692;2023-04-07T14:38:11;10.20;99.90
42833;DHT22;64089;51.478;5.692;2023-04-07T14:40:36;10.30;99.90
42833;DHT22;64089;51.478;5.692;2023-04-07T14:43:02;10.30;99.90
42833;DHT22;64089;51.478;5.692;2023-04-07T14:45:28;10.50;99.90
42833;DHT22;64089;51.478;5.692;2023-04-07T14:47:54;10.60;99.90
42833;DHT22;64089;51.478;5.692;2023-04-07T14:50:20;10.80;99.90
42833;DHT22;64089;51.478;5.692;2023-04-07T14:52:46;10.70;99.90
42833;DHT22;64089;51.478;5.692;2023-04-07T14:55:11;10.70;99.90
42833;DHT22;64089;51.478;5.692;2023-04-07T14:57:37;10.70;99.90
42833;DHT22;64089;51.478;5.692;2023-04-07T15:00:04;10.70;99.90
42833;DHT22;64089;51.478;5.692;2023-04-07T15:02:33;10.70;99.90
42833;DHT22;64089;51.478;5.692;2023-04-07T15:04:59;10.60;99.90
42833;DHT22;64089;51.478;5.692;2023-04-07T15:07:25;10.50;99.90
42833;DHT22;64089;51.478;5.692;2023-04-07T15:09:50;10.40;99.90
42833;DHT22;64089;51.478;5.692;2023-04-07T15:12:16;10.40;99.90
42833;DHT22;64089;51.478;5.692;2023-04-07T15:14:43;10.40;99.90
42833;DHT22;64089;51.478;5.692;2023-04-07T15:17:09;10.30;99.90
42833;DHT22;64089;51.478;5.692;2023-04-07T15:19:35;10.30;99.90
42833;DHT22;64089;51.478;5.692;2023-04-07T15:22:00;10.30;99.90
42833;DHT22;64089;51.478;5.692;2023-04-07T15:24:26;10.30;99.90
42833;DHT22;64089;51.478;5.692;2023-04-07T15:26:52;10.30;99.90
42833;DHT22;64089;51.478;5.692;2023-04-07T15:29:17;10.30;99.90
42833;DHT22;64089;51.478;5.692;2023-04-07T15:31:43;10.30;99.90
42833;DHT22;64089;51.478;5.692;2023-04-07T15:34:08;10.30;99.90
42833;DHT22;64089;51.478;5.692;2023-04-07T15:36:34;10.30;99.90
42833;DHT22;64089;51.478;5.692;2023-04-07T15:39:04;10.30;99.90
42833;DHT22;64089;51.478;5.692;2023-04-07T15:41:29;10.20;99.90
42833;DHT22;64089;51.478;5.692;2023-04-07T15:43:55;10.20;99.90
42833;DHT22;64089;51.478;5.692;2023-04-07T15:46:21;10.20;99.90
42833;DHT22;64089;51.478;5.692;2023-04-07T15:48:46;10.30;99.90
42833;DHT22;64089;51.478;5.692;2023-04-07T15:51:12;10.20;99.90
42833;DHT22;64089;51.478;5.692;2023-04-07T15:53:38;10.00;99.90